sensor_id;sensor_type;location;lat;lon;timestamp;temperature;humidity
16038;DHT22;8123;50.906;6.172;2023-03-01T00:01:23;-0.30;99.90
16038;DHT22;8123;50.906;6.172;2023-03-01T00:03:49;-0.30;99.90
16038;DHT22;8123;50.906;6.172;2023-03-01T00:06:16;-0.40;99.90
16038;DHT22;8123;50.906;6.172;2023-03-01T00:08:43;-0.20;99.90
16038;DHT22;8123;50.906;6.172;2023-03-01T00:11:23;-0.40;99.90
16038;DHT22;8123;50.906;6.172;2023-03-01T00:13:51;-0.50;99.90
16038;DHT22;8123;50.906;6.172;2023-03-01T00:16:29;-0.50;99.90
16038;DHT22;8123;50.906;6.172;2023-03-01T00:18:56;-0.60;99.90
16038;DHT22;8123;50.906;6.172;2023-03-01T00:21:23;-0.70;99.90
16038;DHT22;8123;50.906;6.172;2023-03-01T00:23:49;-0.70;99.90
16038;DHT22;8123;50.906;6.172;2023-03-01T00:26:15;-0.60;99.90
16038;DHT22;8123;50.906;6.172;2023-03-01T00:28:42;-0.50;99.90
16038;DHT22;8123;50.906;6.172;2023-03-01T00:31:14;-0.50;99.90
16038;DHT22;8123;50.906;6.172;2023-03-01T00:33:40;-0.30;99.90
16038;DHT22;8123;50.906;6.172;2023-03-01T00:36:07;-0.30;99.90
16038;DHT22;8123;50.906;6.172;2023-03-01T00:38:37;-0.30;99.90
16038;DHT22;8123;50.906;6.172;2023-03-01T00:41:07;-0.30;99.90
16038;DHT22;8123;50.906;6.172;2023-03-01T00:43:33;-0.30;99.90
16038;DHT22;8123;50.906;6.172;2023-03-01T00:46:07;-0.30;99.90
16038;DHT22;8123;50.906;6.172;2023-03-01T00:48:34;-0.30;99.90
16038;DHT22;8123;50.906;6.172;2023-03-01T00:51:08;-0.30;99.90
16038;DHT22;8123;50.906;6.172;2023-03-01T00:53:34;-0.20;99.90
16038;DHT22;8123;50.906;6.172;2023-03-01T00:56:00;-0.20;99.90
16038;DHT22;8123;50.906;6.172;2023-03-01T00:58:26;-0.30;99.90
16038;DHT22;8123;50.906;6.172;2023-03-01T01:00:52;-0.30;99.90
16038;DHT22;8123;50.906;6.172;2023-03-01T01:03:18;-0.30;99.90
16038;DHT22;8123;50.906;6.172;2023-03-01T01:05:44;-0.40;99.90
16038;DHT22;8123;50.906;6.172;2023-03-01T01:08:09;-0.40;99.90
16038;DHT22;8123;50.906;6.172;2023-03-01T01:10:35;-0.50;99.90
16038;DHT22;8123;50.906;6.172;2023-03-01T01:13:01;-0.50;99.90
16038;DHT22;8123;50.906;6.172;2023-03-01T01:15:27;-0.60;99.90
16038;DHT22;8123;50.906;6.172;2023-03-01T01:17:52;-0.60;99.90
16038;DHT22;8123;50.906;6.172;2023-03-01T01:20:18;-0.70;99.90
16038;DHT22;8123;50.906;6.172;2023-03-01T01:22:44;-0.70;99.90
16038;DHT22;8123;50.906;6.172;2023-03-01T01:25:09;-0.80;99.90
16038;DHT22;8123;50.906;6.172;2023-03-01T01:27:36;-0.90;99.90
16038;DHT22;8123;50.906;6.172;2023-03-01T01:30:02;-1.00;99.90
16038;DHT22;8123;50.906;6.172;2023-03-01T01:32:28;-1.00;99.90
16038;DHT22;8123;50.906;6.172;2023-03-01T01:34:54;-1.00;99.90
16038;DHT22;8123;50.906;6.172;2023-03-01T01:37:20;-1.10;99.90
16038;DHT22;8123;50.906;6.172;2023-03-01T01:39:45;-1.10;99.90
16038;DHT22;8123;50.906;6.172;2023-03-01T01:42:16;-1.10;99.90
16038;DHT22;8123;50.906;6.172;2023-03-01T01:44:45;-1.10;99.90
16038;DHT22;8123;50.906;6.172;2023-03-01T01:47:16;-1.20;99.90
16038;DHT22;8123;50.906;6.172;2023-03-01T01:49:55;-1.20;99.90
16038;DHT22;8123;50.906;6.172;2023-03-01T01:55:26;-1.30;99.90
16038;DHT22;8123;50.906;6.172;2023-03-01T01:57:59;-1.40;99.90
16038;DHT22;8123;50.906;6.172;2023-03-01T02:00:28;-1.40;99.90
16038;DHT22;8123;50.906;6.172;2023-03-01T02:03:00;-1.40;99.90
16038;DHT22;8123;50.906;6.172;2023-03-01T02:08:17;-1.50;99.90
16038;DHT22;8123;50.906;6.172;2023-03-01T02:10:45;-1.50;99.90
16038;DHT22;8123;50.906;6.172;2023-03-01T02:13:11;-1.60;99.90
16038;DHT22;8123;50.906;6.172;2023-03-01T02:15:39;-1.60;99.90
16038;DHT22;8123;50.906;6.172;2023-03-01T02:18:07;-1.60;99.90
16038;DHT22;8123;50.906;6.172;2023-03-01T02:23:29;-1.70;99.90
16038;DHT22;8123;50.906;6.172;2023-03-01T02:28:57;-1.80;99.90
16038;DHT22;8123;50.906;6.172;2023-03-01T02:31:23;-1.80;99.90
16038;DHT22;8123;50.906;6.172;2023-03-01T02:34:10;-1.80;99.90
16038;DHT22;8123;50.906;6.172;2023-03-01T02:36:49;-1.90;99.90
16038;DHT22;8123;50.906;6.172;2023-03-01T02:39:19;-1.90;99.90
16038;DHT22;8123;50.906;6.172;2023-03-01T02:41:49;-1.90;99.90
16038;DHT22;8123;50.906;6.172;2023-03-01T02:44:16;-2.00;99.90
16038;DHT22;8123;50.906;6.172;2023-03-01T02:46:44;-2.00;99.90
16038;DHT22;8123;50.906;6.172;2023-03-01T02:49:27;-2.00;99.90
16038;DHT22;8123;50.906;6.172;2023-03-01T02:55:01;-2.00;99.90
16038;DHT22;8123;50.906;6.172;2023-03-01T02:57:28;-2.10;99.90
16038;DHT22;8123;50.906;6.172;2023-03-01T02:59:56;-2.00;99.90
16038;DHT22;8123;50.906;6.172;2023-03-01T03:02:26;-2.00;99.90
16038;DHT22;8123;50.906;6.172;2023-03-01T03:05:14;-2.10;99.90
16038;DHT22;8123;50.906;6.172;2023-03-01T03:07:43;-2.10;99.90
16038;DHT22;8123;50.906;6.172;2023-03-01T03:10:12;-2.00;99.90
16038;DHT22;8123;50.906;6.172;2023-03-01T03:12:39;-2.00;99.90
16038;DHT22;8123;50.906;6.172;2023-03-01T03:15:06;-1.90;99.90
16038;DHT22;8123;50.906;6.172;2023-03-01T03:17:38;-2.00;99.90
16038;DHT22;8123;50.906;6.172;2023-03-01T03:20:06;-2.00;99.90
16038;DHT22;8123;50.906;6.172;2023-03-01T03:22:39;-2.00;99.90
16038;DHT22;8123;50.906;6.172;2023-03-01T03:25:07;-2.00;99.90
16038;DHT22;8123;50.906;6.172;2023-03-01T03:27:41;-2.10;99.90
16038;DHT22;8123;50.906;6.172;2023-03-01T03:30:09;-2.10;99.90
16038;DHT22;8123;50.906;6.172;2023-03-01T03:32:36;-2.10;99.90
16038;DHT22;8123;50.906;6.172;2023-03-01T03:35:03;-2.10;99.90
16038;DHT22;8123;50.906;6.172;2023-03-01T03:37:38;-2.20;99.90
16038;DHT22;8123;50.906;6.172;2023-03-01T03:40:23;-2.20;99.90
16038;DHT22;8123;50.906;6.172;2023-03-01T03:42:49;-2.20;99.90
16038;DHT22;8123;50.906;6.172;2023-03-01T03:45:15;-2.30;99.90
16038;DHT22;8123;50.906;6.172;2023-03-01T03:47:41;-2.30;99.90
16038;DHT22;8123;50.906;6.172;2023-03-01T03:50:09;-2.30;99.90
16038;DHT22;8123;50.906;6.172;2023-03-01T03:52:34;-2.30;99.90
16038;DHT22;8123;50.906;6.172;2023-03-01T03:55:00;-2.40;99.90
16038;DHT22;8123;50.906;6.172;2023-03-01T03:57:25;-2.40;99.90
16038;DHT22;8123;50.906;6.172;2023-03-01T03:59:51;-2.40;99.90
16038;DHT22;8123;50.906;6.172;2023-03-01T04:02:16;-2.40;99.90
16038;DHT22;8123;50.906;6.172;2023-03-01T04:04:48;-2.40;99.90
16038;DHT22;8123;50.906;6.172;2023-03-01T04:07:15;-2.30;99.90
16038;DHT22;8123;50.906;6.172;2023-03-01T04:09:42;-2.20;99.90
16038;DHT22;8123;50.906;6.172;2023-03-01T04:12:08;-2.00;99.90
16038;DHT22;8123;50.906;6.172;2023-03-01T04:14:34;-2.00;99.90
16038;DHT22;8123;50.906;6.172;2023-03-01T04:16:59;-1.90;99.90
16038;DHT22;8123;50.906;6.172;2023-03-01T04:19:26;-1.90;99.90
16038;DHT22;8123;50.906;6.172;2023-03-01T04:21:53;-1.90;99.90
16038;DHT22;8123;50.906;6.172;2023-03-01T04:24:18;-1.80;99.90
16038;DHT22;8123;50.906;6.172;2023-03-01T04:26:44;-1.80;99.90
16038;DHT22;8123;50.906;6.172;2023-03-01T04:29:10;-1.90;99.90
16038;DHT22;8123;50.906;6.172;2023-03-01T04:31:35;-1.90;99.90
16038;DHT22;8123;50.906;6.172;2023-03-01T04:34:01;-1.90;99.90
16038;DHT22;8123;50.906;6.172;2023-03-01T04:36:28;-1.80;99.90
16038;DHT22;8123;50.906;6.172;2023-03-01T04:38:55;-1.80;99.90
16038;DHT22;8123;50.906;6.172;2023-03-01T04:41:23;-1.90;99.90
16038;DHT22;8123;50.906;6.172;2023-03-01T04:43:49;-1.90;99.90
16038;DHT22;8123;50.906;6.172;2023-03-01T04:46:17;-1.90;99.90
16038;DHT22;8123;50.906;6.172;2023-03-01T04:48:45;-1.90;99.90
16038;DHT22;8123;50.906;6.172;2023-03-01T04:51:11;-1.90;99.90
16038;DHT22;8123;50.906;6.172;2023-03-01T04:53:40;-1.80;99.90
16038;DHT22;8123;50.906;6.172;2023-03-01T04:56:06;-1.80;99.90
16038;DHT22;8123;50.906;6.172;2023-03-01T04:58:32;-1.80;99.90
16038;DHT22;8123;50.906;6.172;2023-03-01T05:00:58;-1.80;99.90
16038;DHT22;8123;50.906;6.172;2023-03-01T05:03:24;-1.80;99.90
16038;DHT22;8123;50.906;6.172;2023-03-01T05:05:51;-1.90;99.90
16038;DHT22;8123;50.906;6.172;2023-03-01T05:08:17;-2.00;99.90
16038;DHT22;8123;50.906;6.172;2023-03-01T05:10:46;-2.10;99.90
16038;DHT22;8123;50.906;6.172;2023-03-01T05:13:14;-2.20;99.90
16038;DHT22;8123;50.906;6.172;2023-03-01T05:15:47;-2.30;99.90
16038;DHT22;8123;50.906;6.172;2023-03-01T05:18:13;-2.30;99.90
16038;DHT22;8123;50.906;6.172;2023-03-01T05:20:39;-2.20;99.90
16038;DHT22;8123;50.906;6.172;2023-03-01T05:23:04;-2.10;99.90
16038;DHT22;8123;50.906;6.172;2023-03-01T05:25:33;-2.10;99.90
16038;DHT22;8123;50.906;6.172;2023-03-01T05:28:01;-2.00;99.90
16038;DHT22;8123;50.906;6.172;2023-03-01T05:30:30;-2.10;99.90
16038;DHT22;8123;50.906;6.172;2023-03-01T05:32:56;-2.00;99.90
16038;DHT22;8123;50.906;6.172;2023-03-01T05:35:23;-2.10;99.90
16038;DHT22;8123;50.906;6.172;2023-03-01T05:37:49;-2.10;99.90
16038;DHT22;8123;50.906;6.172;2023-03-01T05:40:18;-2.20;99.90
16038;DHT22;8123;50.906;6.172;2023-03-01T05:42:46;-2.20;99.90
16038;DHT22;8123;50.906;6.172;2023-03-01T05:45:12;-2.20;99.90
16038;DHT22;8123;50.906;6.172;2023-03-01T05:47:43;-2.10;99.90
16038;DHT22;8123;50.906;6.172;2023-03-01T05:50:14;-2.10;99.90
16038;DHT22;8123;50.906;6.172;2023-03-01T05:52:48;-2.00;99.90
16038;DHT22;8123;50.906;6.172;2023-03-01T05:55:15;-2.00;99.90
16038;DHT22;8123;50.906;6.172;2023-03-01T05:57:40;-1.90;99.90
16038;DHT22;8123;50.906;6.172;2023-03-01T06:00:09;-2.00;99.90
16038;DHT22;8123;50.906;6.172;2023-03-01T06:02:34;-2.00;99.90
16038;DHT22;8123;50.906;6.172;2023-03-01T06:05:00;-2.00;99.90
16038;DHT22;8123;50.906;6.172;2023-03-01T06:07:26;-1.90;99.90
16038;DHT22;8123;50.906;6.172;2023-03-01T06:09:51;-2.00;99.90
16038;DHT22;8123;50.906;6.172;2023-03-01T06:12:17;-1.90;99.90
16038;DHT22;8123;50.906;6.172;2023-03-01T06:14:43;-1.90;99.90
16038;DHT22;8123;50.906;6.172;2023-03-01T06:17:08;-1.90;99.90
16038;DHT22;8123;50.906;6.172;2023-03-01T06:19:34;-1.90;99.90
16038;DHT22;8123;50.906;6.172;2023-03-01T06:21:59;-1.90;99.90
16038;DHT22;8123;50.906;6.172;2023-03-01T06:24:25;-1.80;99.90
16038;DHT22;8123;50.906;6.172;2023-03-01T06:26:52;-1.30;99.90
16038;DHT22;8123;50.906;6.172;2023-03-01T06:29:18;-1.80;99.90
16038;DHT22;8123;50.906;6.172;2023-03-01T06:31:43;-1.90;99.90
16038;DHT22;8123;50.906;6.172;2023-03-01T06:34:11;-1.90;99.90
16038;DHT22;8123;50.906;6.172;2023-03-01T06:36:39;-1.90;99.90
16038;DHT22;8123;50.906;6.172;2023-03-01T06:39:04;-2.00;99.90
16038;DHT22;8123;50.906;6.172;2023-03-01T06:41:31;-2.00;99.90
16038;DHT22;8123;50.906;6.172;2023-03-01T06:43:56;-2.10;99.90
16038;DHT22;8123;50.906;6.172;2023-03-01T06:46:22;-2.20;99.90
16038;DHT22;8123;50.906;6.172;2023-03-01T06:48:48;-2.20;99.90
16038;DHT22;8123;50.906;6.172;2023-03-01T06:51:13;-2.20;99.90
16038;DHT22;8123;50.906;6.172;2023-03-01T06:53:39;-2.20;99.90
16038;DHT22;8123;50.906;6.172;2023-03-01T06:56:04;-2.20;99.90
16038;DHT22;8123;50.906;6.172;2023-03-01T06:58:30;-2.20;99.90
16038;DHT22;8123;50.906;6.172;2023-03-01T07:00:56;-2.20;99.90
16038;DHT22;8123;50.906;6.172;2023-03-01T07:03:22;-2.20;99.90
16038;DHT22;8123;50.906;6.172;2023-03-01T07:05:49;-2.20;99.90
16038;DHT22;8123;50.906;6.172;2023-03-01T07:08:18;-2.20;99.90
16038;DHT22;8123;50.906;6.172;2023-03-01T07:10:43;-2.10;99.90
16038;DHT22;8123;50.906;6.172;2023-03-01T07:13:09;-1.90;99.90
16038;DHT22;8123;50.906;6.172;2023-03-01T07:15:34;-1.80;99.90
16038;DHT22;8123;50.906;6.172;2023-03-01T07:18:00;-1.70;99.90
16038;DHT22;8123;50.906;6.172;2023-03-01T07:20:26;-1.70;99.90
16038;DHT22;8123;50.906;6.172;2023-03-01T07:22:52;-1.50;99.90
16038;DHT22;8123;50.906;6.172;2023-03-01T07:25:18;-1.40;99.90
16038;DHT22;8123;50.906;6.172;2023-03-01T07:27:49;-1.30;99.90
16038;DHT22;8123;50.906;6.172;2023-03-01T07:30:16;-1.30;99.90
16038;DHT22;8123;50.906;6.172;2023-03-01T07:32:41;-1.20;99.90
16038;DHT22;8123;50.906;6.172;2023-03-01T07:35:07;-1.20;99.90
16038;DHT22;8123;50.906;6.172;2023-03-01T07:37:33;-1.10;99.90
16038;DHT22;8123;50.906;6.172;2023-03-01T07:39:58;-1.10;99.90
16038;DHT22;8123;50.906;6.172;2023-03-01T07:42:24;-1.10;99.90
16038;DHT22;8123;50.906;6.172;2023-03-01T07:44:50;-1.00;99.90
16038;DHT22;8123;50.906;6.172;2023-03-01T07:47:15;-1.00;99.90
16038;DHT22;8123;50.906;6.172;2023-03-01T07:49:42;-1.00;99.90
16038;DHT22;8123;50.906;6.172;2023-03-01T07:52:10;-0.90;99.90
16038;DHT22;8123;50.906;6.172;2023-03-01T07:54:36;-0.80;99.90
16038;DHT22;8123;50.906;6.172;2023-03-01T07:57:03;-0.70;99.90
16038;DHT22;8123;50.906;6.172;2023-03-01T07:59:28;-0.70;99.90
16038;DHT22;8123;50.906;6.172;2023-03-01T08:01:58;-0.70;99.90
16038;DHT22;8123;50.906;6.172;2023-03-01T08:04:23;-0.60;99.90
16038;DHT22;8123;50.906;6.172;2023-03-01T08:06:52;-0.60;99.90
16038;DHT22;8123;50.906;6.172;2023-03-01T08:09:18;-0.50;99.90
16038;DHT22;8123;50.906;6.172;2023-03-01T08:11:43;-0.50;99.90
16038;DHT22;8123;50.906;6.172;2023-03-01T08:14:09;-0.40;99.90
16038;DHT22;8123;50.906;6.172;2023-03-01T08:16:36;-0.40;99.90
16038;DHT22;8123;50.906;6.172;2023-03-01T08:19:10;-0.30;99.90
16038;DHT22;8123;50.906;6.172;2023-03-01T08:21:36;-0.20;99.90
16038;DHT22;8123;50.906;6.172;2023-03-01T08:24:06;-0.20;99.90
16038;DHT22;8123;50.906;6.172;2023-03-01T08:26:32;-0.10;99.90
16038;DHT22;8123;50.906;6.172;2023-03-01T08:28:59;-0.10;99.90
16038;DHT22;8123;50.906;6.172;2023-03-01T08:31:30;0.00;99.90
16038;DHT22;8123;50.906;6.172;2023-03-01T08:33:59;0.10;99.90
16038;DHT22;8123;50.906;6.172;2023-03-01T08:36:30;0.20;99.90
16038;DHT22;8123;50.906;6.172;2023-03-01T08:38:56;0.20;99.90
16038;DHT22;8123;50.906;6.172;2023-03-01T08:41:22;0.30;99.90
16038;DHT22;8123;50.906;6.172;2023-03-01T08:43:48;0.30;99.90
16038;DHT22;8123;50.906;6.172;2023-03-01T08:46:14;0.40;99.90
16038;DHT22;8123;50.906;6.172;2023-03-01T08:48:40;0.40;99.90
16038;DHT22;8123;50.906;6.172;2023-03-01T08:51:13;0.50;99.90
16038;DHT22;8123;50.906;6.172;2023-03-01T08:53:40;0.50;99.90
16038;DHT22;8123;50.906;6.172;2023-03-01T08:56:06;0.60;99.90
16038;DHT22;8123;50.906;6.172;2023-03-01T08:58:32;0.60;99.90
16038;DHT22;8123;50.906;6.172;2023-03-01T09:00:58;0.60;99.90
16038;DHT22;8123;50.906;6.172;2023-03-01T09:03:24;0.70;99.90
16038;DHT22;8123;50.906;6.172;2023-03-01T09:05:51;0.70;99.90
16038;DHT22;8123;50.906;6.172;2023-03-01T09:08:17;0.80;99.90
16038;DHT22;8123;50.906;6.172;2023-03-01T09:10:43;0.90;99.90
16038;DHT22;8123;50.906;6.172;2023-03-01T09:13:09;1.00;99.90
16038;DHT22;8123;50.906;6.172;2023-03-01T09:15:37;1.00;99.90
16038;DHT22;8123;50.906;6.172;2023-03-01T09:18:02;1.00;99.90
16038;DHT22;8123;50.906;6.172;2023-03-01T09:20:29;1.10;99.90
16038;DHT22;8123;50.906;6.172;2023-03-01T09:22:56;1.20;99.90
16038;DHT22;8123;50.906;6.172;2023-03-01T09:25:21;1.10;99.90
16038;DHT22;8123;50.906;6.172;2023-03-01T09:27:51;1.20;99.90
16038;DHT22;8123;50.906;6.172;2023-03-01T09:30:17;1.20;99.90
16038;DHT22;8123;50.906;6.172;2023-03-01T09:32:43;1.30;99.90
16038;DHT22;8123;50.906;6.172;2023-03-01T09:35:11;1.30;99.90
16038;DHT22;8123;50.906;6.172;2023-03-01T09:37:37;1.40;99.90
16038;DHT22;8123;50.906;6.172;2023-03-01T09:40:05;1.40;99.90
16038;DHT22;8123;50.906;6.172;2023-03-01T09:42:34;1.50;99.90
16038;DHT22;8123;50.906;6.172;2023-03-01T09:45:35;1.60;99.90
16038;DHT22;8123;50.906;6.172;2023-03-01T09:48:04;1.60;99.90
16038;DHT22;8123;50.906;6.172;2023-03-01T09:50:41;1.60;99.90
16038;DHT22;8123;50.906;6.172;2023-03-01T09:53:17;1.60;99.90
16038;DHT22;8123;50.906;6.172;2023-03-01T09:55:48;1.70;99.90
16038;DHT22;8123;50.906;6.172;2023-03-01T09:58:41;1.80;99.90
16038;DHT22;8123;50.906;6.172;2023-03-01T10:04:47;1.90;99.90
16038;DHT22;8123;50.906;6.172;2023-03-01T10:07:17;1.90;99.90
16038;DHT22;8123;50.906;6.172;2023-03-01T10:09:45;1.90;99.90
16038;DHT22;8123;50.906;6.172;2023-03-01T10:12:20;2.00;99.90
16038;DHT22;8123;50.906;6.172;2023-03-01T10:15:00;1.90;99.90
16038;DHT22;8123;50.906;6.172;2023-03-01T10:17:41;2.00;99.90
16038;DHT22;8123;50.906;6.172;2023-03-01T10:20:20;2.00;99.90
16038;DHT22;8123;50.906;6.172;2023-03-01T10:22:46;2.10;99.90
16038;DHT22;8123;50.906;6.172;2023-03-01T10:28:01;2.10;99.90
16038;DHT22;8123;50.906;6.172;2023-03-01T10:30:40;2.20;99.90
16038;DHT22;8123;50.906;6.172;2023-03-01T10:33:38;2.30;99.90
16038;DHT22;8123;50.906;6.172;2023-03-01T10:36:08;2.40;99.90
16038;DHT22;8123;50.906;6.172;2023-03-01T10:38:49;2.40;99.90
16038;DHT22;8123;50.906;6.172;2023-03-01T10:41:17;2.50;99.90
16038;DHT22;8123;50.906;6.172;2023-03-01T10:51:40;2.60;99.90
16038;DHT22;8123;50.906;6.172;2023-03-01T10:54:33;2.60;99.90
16038;DHT22;8123;50.906;6.172;2023-03-01T10:57:03;2.60;99.90
16038;DHT22;8123;50.906;6.172;2023-03-01T10:59:32;2.70;99.90
16038;DHT22;8123;50.906;6.172;2023-03-01T11:04:29;2.70;99.90
16038;DHT22;8123;50.906;6.172;2023-03-01T11:06:59;2.80;99.90
16038;DHT22;8123;50.906;6.172;2023-03-01T11:09:26;2.90;99.90
16038;DHT22;8123;50.906;6.172;2023-03-01T11:11:57;2.90;99.90
16038;DHT22;8123;50.906;6.172;2023-03-01T11:14:46;2.90;99.90
16038;DHT22;8123;50.906;6.172;2023-03-01T11:19:39;2.90;99.90
16038;DHT22;8123;50.906;6.172;2023-03-01T11:22:18;3.00;99.90
16038;DHT22;8123;50.906;6.172;2023-03-01T11:24:51;3.10;99.90
16038;DHT22;8123;50.906;6.172;2023-03-01T11:27:19;3.20;99.90
16038;DHT22;8123;50.906;6.172;2023-03-01T11:35:40;3.30;99.90
16038;DHT22;8123;50.906;6.172;2023-03-01T11:38:25;3.40;99.90
16038;DHT22;8123;50.906;6.172;2023-03-01T11:43:28;3.40;99.90
16038;DHT22;8123;50.906;6.172;2023-03-01T11:46:24;3.60;99.90
16038;DHT22;8123;50.906;6.172;2023-03-01T11:54:44;3.70;99.90
16038;DHT22;8123;50.906;6.172;2023-03-01T12:08:45;4.00;99.90
16038;DHT22;8123;50.906;6.172;2023-03-01T12:14:25;4.00;99.90
16038;DHT22;8123;50.906;6.172;2023-03-01T12:33:29;4.30;99.90
16038;DHT22;8123;50.906;6.172;2023-03-01T12:39:03;4.60;99.90
16038;DHT22;8123;50.906;6.172;2023-03-01T12:44:15;4.50;99.90
16038;DHT22;8123;50.906;6.172;2023-03-01T12:49:45;4.70;99.90
16038;DHT22;8123;50.906;6.172;2023-03-01T12:52:23;4.70;99.90
16038;DHT22;8123;50.906;6.172;2023-03-01T12:54:53;4.70;99.90
16038;DHT22;8123;50.906;6.172;2023-03-01T12:57:40;4.80;99.90
16038;DHT22;8123;50.906;6.172;2023-03-01T13:00:47;4.80;99.90
16038;DHT22;8123;50.906;6.172;2023-03-01T13:06:20;5.00;99.90
16038;DHT22;8123;50.906;6.172;2023-03-01T13:11:41;5.00;99.90
16038;DHT22;8123;50.906;6.172;2023-03-01T13:16:55;5.10;99.90
16038;DHT22;8123;50.906;6.172;2023-03-01T13:19:21;5.10;99.90
16038;DHT22;8123;50.906;6.172;2023-03-01T13:21:49;5.30;99.90
16038;DHT22;8123;50.906;6.172;2023-03-01T13:24:26;5.10;99.90
16038;DHT22;8123;50.906;6.172;2023-03-01T13:29:49;5.20;99.90
16038;DHT22;8123;50.906;6.172;2023-03-01T13:32:44;5.20;99.90
16038;DHT22;8123;50.906;6.172;2023-03-01T13:37:45;5.30;99.90
16038;DHT22;8123;50.906;6.172;2023-03-01T13:42:48;5.40;99.90
16038;DHT22;8123;50.906;6.172;2023-03-01T13:45:20;5.40;99.90
16038;DHT22;8123;50.906;6.172;2023-03-01T13:47:58;5.60;99.90
16038;DHT22;8123;50.906;6.172;2023-03-01T13:50:29;5.60;99.90
16038;DHT22;8123;50.906;6.172;2023-03-01T13:52:58;5.50;99.90
16038;DHT22;8123;50.906;6.172;2023-03-01T13:56:28;5.50;99.90
16038;DHT22;8123;50.906;6.172;2023-03-01T13:58:28;5.60;99.90
16038;DHT22;8123;50.906;6.172;2023-03-01T14:01:03;5.50;99.90
16038;DHT22;8123;50.906;6.172;2023-03-01T14:03:31;5.60;99.90
16038;DHT22;8123;50.906;6.172;2023-03-01T14:08:25;5.60;99.90
16038;DHT22;8123;50.906;6.172;2023-03-01T14:14:01;5.60;99.90
16038;DHT22;8123;50.906;6.172;2023-03-01T14:19:26;5.70;99.90
16038;DHT22;8123;50.906;6.172;2023-03-01T14:22:27;5.90;99.90
16038;DHT22;8123;50.906;6.172;2023-03-01T14:25:02;5.90;99.90
16038;DHT22;8123;50.906;6.172;2023-03-01T14:27:37;5.90;99.90
16038;DHT22;8123;50.906;6.172;2023-03-01T14:30:13;5.90;99.90
16038;DHT22;8123;50.906;6.172;2023-03-01T14:32:39;5.80;99.90
16038;DHT22;8123;50.906;6.172;2023-03-01T14:35:21;5.80;99.90
16038;DHT22;8123;50.906;6.172;2023-03-01T14:37:47;5.80;99.90
16038;DHT22;8123;50.906;6.172;2023-03-01T14:40:41;5.80;99.90
16038;DHT22;8123;50.906;6.172;2023-03-01T14:43:16;5.80;99.90
16038;DHT22;8123;50.906;6.172;2023-03-01T14:45:48;5.80;99.90
16038;DHT22;8123;50.906;6.172;2023-03-01T14:48:15;5.90;99.90
16038;DHT22;8123;50.906;6.172;2023-03-01T14:50:42;5.90;99.90
16038;DHT22;8123;50.906;6.172;2023-03-01T14:53:28;6.00;99.90
16038;DHT22;8123;50.906;6.172;2023-03-01T14:56:04;6.00;99.90
16038;DHT22;8123;50.906;6.172;2023-03-01T14:58:32;5.90;99.90
16038;DHT22;8123;50.906;6.172;2023-03-01T15:01:03;5.90;99.90
16038;DHT22;8123;50.906;6.172;2023-03-01T15:03:35;5.40;99.90
16038;DHT22;8123;50.906;6.172;2023-03-01T15:06:05;6.00;99.90
16038;DHT22;8123;50.906;6.172;2023-03-01T15:08:31;5.90;99.90
16038;DHT22;8123;50.906;6.172;2023-03-01T15:11:24;5.90;99.90
16038;DHT22;8123;50.906;6.172;2023-03-01T15:13:52;6.00;99.90
16038;DHT22;8123;50.906;6.172;2023-03-01T15:16:26;6.00;99.90
16038;DHT22;8123;50.906;6.172;2023-03-01T15:19:00;6.00;99.90
16038;DHT22;8123;50.906;6.172;2023-03-01T15:21:35;6.00;99.90
16038;DHT22;8123;50.906;6.172;2023-03-01T15:26:58;5.90;99.90
16038;DHT22;8123;50.906;6.172;2023-03-01T15:29:29;5.90;99.90
16038;DHT22;8123;50.906;6.172;2023-03-01T15:31:56;6.10;99.90
16038;DHT22;8123;50.906;6.172;2023-03-01T15:36:53;6.50;99.90
16038;DHT22;8123;50.906;6.172;2023-03-01T15:39:41;5.90;99.90
16038;DHT22;8123;50.906;6.172;2023-03-01T15:42:09;5.90;99.90
16038;DHT22;8123;50.906;6.172;2023-03-01T15:44:38;5.90;99.90
16038;DHT22;8123;50.906;6.172;2023-03-01T15:47:26;5.90;99.90
16038;DHT22;8123;50.906;6.172;2023-03-01T15:49:52;5.90;99.90
16038;DHT22;8123;50.906;6.172;2023-03-01T15:54:59;6.00;99.90
16038;DHT22;8123;50.906;6.172;2023-03-01T15:57:26;5.90;99.90
16038;DHT22;8123;50.906;6.172;2023-03-01T15:59:52;6.10;99.90
16038;DHT22;8123;50.906;6.172;2023-03-01T16:02:18;5.90;99.90
16038;DHT22;8123;50.906;6.172;2023-03-01T16:04:46;6.30;99.90
16038;DHT22;8123;50.906;6.172;2023-03-01T16:07:12;5.80;99.90
16038;DHT22;8123;50.906;6.172;2023-03-01T16:09:38;6.10;99.90
16038;DHT22;8123;50.906;6.172;2023-03-01T16:12:05;5.80;99.90
16038;DHT22;8123;50.906;6.172;2023-03-01T16:14:31;5.70;99.90
16038;DHT22;8123;50.906;6.172;2023-03-01T16:16:56;5.70;99.90
16038;DHT22;8123;50.906;6.172;2023-03-01T16:19:22;5.90;99.90
16038;DHT22;8123;50.906;6.172;2023-03-01T16:21:48;6.40;99.90
16038;DHT22;8123;50.906;6.172;2023-03-01T16:24:15;5.70;99.90
16038;DHT22;8123;50.906;6.172;2023-03-01T16:26:40;5.80;99.90
16038;DHT22;8123;50.906;6.172;2023-03-01T16:29:07;6.00;99.90
16038;DHT22;8123;50.906;6.172;2023-03-01T16:31:33;5.60;99.90
16038;DHT22;8123;50.906;6.172;2023-03-01T16:33:59;5.60;99.90
16038;DHT22;8123;50.906;6.172;2023-03-01T16:36:26;5.80;99.90
16038;DHT22;8123;50.906;6.172;2023-03-01T16:38:54;5.50;99.90
16038;DHT22;8123;50.906;6.172;2023-03-01T16:41:22;5.80;99.90
16038;DHT22;8123;50.906;6.172;2023-03-01T16:43:48;5.40;99.90
16038;DHT22;8123;50.906;6.172;2023-03-01T16:46:17;5.40;99.90
16038;DHT22;8123;50.906;6.172;2023-03-01T16:48:43;5.30;99.90
16038;DHT22;8123;50.906;6.172;2023-03-01T16:51:09;5.30;99.90
16038;DHT22;8123;50.906;6.172;2023-03-01T16:53:35;5.30;99.90
16038;DHT22;8123;50.906;6.172;2023-03-01T16:56:02;6.00;99.90
16038;DHT22;8123;50.906;6.172;2023-03-01T16:58:29;5.30;99.90
16038;DHT22;8123;50.906;6.172;2023-03-01T17:00:56;5.30;99.90
16038;DHT22;8123;50.906;6.172;2023-03-01T17:03:23;5.20;99.90
16038;DHT22;8123;50.906;6.172;2023-03-01T17:05:50;5.60;99.90
16038;DHT22;8123;50.906;6.172;2023-03-01T17:08:16;5.40;99.90
16038;DHT22;8123;50.906;6.172;2023-03-01T17:10:42;5.00;99.90
16038;DHT22;8123;50.906;6.172;2023-03-01T17:13:08;5.00;99.90
16038;DHT22;8123;50.906;6.172;2023-03-01T17:15:35;4.90;99.90
16038;DHT22;8123;50.906;6.172;2023-03-01T17:18:02;4.80;99.90
16038;DHT22;8123;50.906;6.172;2023-03-01T17:20:28;4.70;99.90
16038;DHT22;8123;50.906;6.172;2023-03-01T17:22:54;5.60;99.90
16038;DHT22;8123;50.906;6.172;2023-03-01T17:25:19;4.60;99.90
16038;DHT22;8123;50.906;6.172;2023-03-01T17:27:45;4.50;99.90
16038;DHT22;8123;50.906;6.172;2023-03-01T17:30:12;4.50;99.90
16038;DHT22;8123;50.906;6.172;2023-03-01T17:32:38;4.40;99.90
16038;DHT22;8123;50.906;6.172;2023-03-01T17:35:04;4.30;99.90
16038;DHT22;8123;50.906;6.172;2023-03-01T17:37:30;4.20;99.90
16038;DHT22;8123;50.906;6.172;2023-03-01T17:39:55;4.20;99.90
16038;DHT22;8123;50.906;6.172;2023-03-01T17:42:21;4.10;99.90
16038;DHT22;8123;50.906;6.172;2023-03-01T17:44:47;4.20;99.90
16038;DHT22;8123;50.906;6.172;2023-03-01T17:47:12;4.10;99.90
16038;DHT22;8123;50.906;6.172;2023-03-01T17:49:38;4.00;99.90
16038;DHT22;8123;50.906;6.172;2023-03-01T17:52:04;3.90;99.90
16038;DHT22;8123;50.906;6.172;2023-03-01T17:54:29;3.90;99.90
16038;DHT22;8123;50.906;6.172;2023-03-01T17:56:57;3.90;99.90
16038;DHT22;8123;50.906;6.172;2023-03-01T17:59:23;3.80;99.90
16038;DHT22;8123;50.906;6.172;2023-03-01T18:01:49;3.80;99.90
16038;DHT22;8123;50.906;6.172;2023-03-01T18:04:17;4.90;99.90
16038;DHT22;8123;50.906;6.172;2023-03-01T18:06:48;3.90;99.90
16038;DHT22;8123;50.906;6.172;2023-03-01T18:09:14;4.50;99.90